Time;durP1;ratioP1;P1;durP2;ratioP2;P2;SDS_P1;SDS_P2;PMS_P1;PMS_P2;Temp;Humidity;BMP_temperature;BMP_pressure;BME280_temperature;BME280_humidity;BME280_pressure;Samples;Min_cycle;Max_cycle;Signal;HPM_P1;HPM_P2
2021/06/24 00:01:09;;;;;;;9.07;5.45;;;16.40;99.90;;;;;;4992034;28;20201;-69
2021/06/24 00:03:38;;;;;;;7.65;5.45;;;16.40;99.90;;;;;;4986649;28;20289;-71
2021/06/24 00:06:06;;;;;;;10.45;4.75;;;16.40;99.90;;;;;;4992645;28;20195;-72
2021/06/24 00:08:34;;;;;;;10.75;5.32;;;16.40;99.90;;;;;;4987220;28;20202;-71
2021/06/24 00:11:02;;;;;;;6.95;4.82;;;16.40;99.90;;;;;;4992527;28;20214;-71
2021/06/24 00:13:30;;;;;;;8.20;4.57;;;16.40;99.90;;;;;;4992328;28;20212;-71
2021/06/24 00:15:58;;;;;;;5.13;4.63;;;16.40;99.90;;;;;;4992734;28;20690;-68
2021/06/24 00:18:29;;;;;;;8.43;4.63;;;16.40;99.90;;;;;;4991365;28;20210;-68
2021/06/24 00:20:57;;;;;;;8.60;5.38;;;16.40;99.90;;;;;;4992150;28;20212;-66
2021/06/24 00:23:25;;;;;;;8.45;5.30;;;16.40;99.90;;;;;;4992341;28;20273;-70
2021/06/24 00:25:53;;;;;;;8.05;4.65;;;16.40;99.90;;;;;;4992565;28;20649;-70
2021/06/24 00:28:22;;;;;;;12.77;5.63;;;16.40;99.90;;;;;;4991629;28;20285;-68
2021/06/24 00:30:51;;;;;;;6.75;5.03;;;16.40;99.90;;;;;;4992055;28;20206;-67
2021/06/24 00:33:20;;;;;;;10.27;5.95;;;16.30;99.90;;;;;;4992105;28;20234;-68
2021/06/24 00:35:48;;;;;;;6.50;4.95;;;16.30;99.90;;;;;;4992099;28;20223;-70
2021/06/24 00:38:16;;;;;;;7.88;5.35;;;16.30;99.90;;;;;;4991580;28;20225;-70
2021/06/24 00:40:44;;;;;;;5.88;4.53;;;16.30;99.90;;;;;;4994026;28;20203;-70
2021/06/24 00:43:13;;;;;;;20.40;5.18;;;16.30;99.90;;;;;;4990909;28;20231;-72
2021/06/24 00:45:41;;;;;;;7.38;4.35;;;16.30;99.90;;;;;;4991399;28;20210;-68
2021/06/24 00:48:10;;;;;;;6.32;4.90;;;16.30;99.90;;;;;;4996061;28;20213;-70
2021/06/24 00:50:41;;;;;;;7.30;4.40;;;16.30;99.90;;;;;;4991915;28;20206;-70
2021/06/24 00:53:10;;;;;;;7.68;5.20;;;16.30;99.90;;;;;;4992383;28;20222;-70
2021/06/24 00:55:42;;;;;;;8.50;4.85;;;16.40;99.90;;;;;;4988958;28;20220;-68
2021/06/24 00:58:12;;;;;;;7.50;5.25;;;16.40;99.90;;;;;;4992045;28;20270;-70
2021/06/24 01:00:40;;;;;;;7.63;5.60;;;16.40;99.90;;;;;;4991186;28;20654;-72
2021/06/24 01:03:07;;;;;;;7.60;5.13;;;16.30;99.90;;;;;;4992150;28;20227;-68
2021/06/24 01:05:36;;;;;;;6.57;5.18;;;16.30;99.90;;;;;;4992206;28;20203;-70
2021/06/24 01:08:05;;;;;;;6.72;4.68;;;16.20;99.90;;;;;;4992452;28;20546;-72
2021/06/24 01:10:34;;;;;;;8.70;6.10;;;16.30;99.90;;;;;;4991578;28;20706;-70
2021/06/24 01:13:02;;;;;;;9.38;4.53;;;16.30;99.90;;;;;;4990430;28;20233;-72
2021/06/24 01:15:29;;;;;;;7.00;4.80;;;16.30;99.90;;;;;;4991688;28;20673;-71
2021/06/24 01:17:57;;;;;;;9.02;6.85;;;16.30;99.90;;;;;;4990759;28;20210;-71
2021/06/24 01:20:26;;;;;;;5.82;5.32;;;16.30;99.90;;;;;;4991777;28;20241;-71
2021/06/24 01:22:53;;;;;;;6.55;5.20;;;16.40;99.90;;;;;;4989371;28;20232;-73
2021/06/24 01:25:22;;;;;;;8.45;5.43;;;16.40;99.90;;;;;;4991075;28;20226;-72
2021/06/24 01:27:54;;;;;;;6.05;4.90;;;16.40;99.90;;;;;;4991471;28;20266;-70
2021/06/24 01:30:22;;;;;;;7.80;5.38;;;16.30;99.90;;;;;;4991715;28;20204;-70
2021/06/24 01:32:49;;;;;;;10.43;4.85;;;16.30;99.90;;;;;;4991762;28;20564;-70
2021/06/24 01:35:21;;;;;;;8.15;4.95;;;16.30;99.90;;;;;;4992140;28;20578;-70
2021/06/24 01:37:48;;;;;;;15.43;5.30;;;16.20;99.90;;;;;;4991660;28;20206;-70
2021/06/24 01:40:16;;;;;;;6.13;4.63;;;16.30;99.90;;;;;;4991066;28;20735;-68
2021/06/24 01:43:24;;;;;;;10.63;5.10;;;16.20;99.90;;;;;;4990905;28;20232;-68
2021/06/24 01:45:54;;;;;;;8.55;5.18;;;16.20;99.90;;;;;;4989342;28;20209;-73
2021/06/24 01:48:22;;;;;;;8.52;6.65;;;16.10;99.90;;;;;;4990291;28;20213;-67
2021/06/24 01:50:50;;;;;;;8.85;6.03;;;16.20;99.90;;;;;;4991580;28;20205;-70
2021/06/24 01:53:18;;;;;;;12.05;7.35;;;16.20;99.90;;;;;;4990609;28;20219;-69
2021/06/24 01:58:23;;;;;;;10.70;6.20;;;16.20;99.90;;;;;;5839999;23;20613;-71
2021/06/24 02:00:53;;;;;;;8.38;6.38;;;16.20;99.90;;;;;;4990179;28;20238;-71
2021/06/24 02:03:21;;;;;;;6.95;5.75;;;16.20;99.90;;;;;;4974549;28;20252;-70
2021/06/24 02:05:51;;;;;;;13.05;6.93;;;16.20;99.90;;;;;;4978299;28;20636;-70
2021/06/24 02:08:20;;;;;;;11.50;6.65;;;16.20;99.90;;;;;;4977186;28;20214;-70
2021/06/24 02:10:48;;;;;;;6.47;4.90;;;16.20;99.90;;;;;;4972433;28;20631;-70
2021/06/24 02:13:16;;;;;;;9.35;5.22;;;16.20;99.90;;;;;;4974876;28;20270;-71
2021/06/24 02:15:44;;;;;;;9.65;5.45;;;16.20;99.90;;;;;;4970673;28;20223;-70
2021/06/24 02:18:13;;;;;;;6.90;5.55;;;16.20;99.90;;;;;;4989762;28;20629;-69
2021/06/24 02:20:41;;;;;;;8.05;5.80;;;16.20;99.90;;;;;;4983617;28;20202;-70
2021/06/24 02:23:10;;;;;;;6.63;5.35;;;16.10;99.90;;;;;;4984149;28;20700;-70
2021/06/24 02:25:38;;;;;;;9.10;5.45;;;16.10;99.90;;;;;;4975582;28;20579;-70
2021/06/24 02:28:06;;;;;;;9.27;4.82;;;16.10;99.90;;;;;;4974319;28;20217;-70
2021/06/24 02:30:34;;;;;;;8.35;5.80;;;16.10;99.90;;;;;;4975471;28;20206;-70
2021/06/24 02:33:01;;;;;;;11.15;6.30;;;16.10;99.90;;;;;;4976086;28;20313;-70
2021/06/24 02:35:34;;;;;;;6.97;6.22;;;16.10;99.90;;;;;;4984932;28;20226;-70
2021/06/24 02:38:01;;;;;;;20.08;8.45;;;16.10;99.90;;;;;;4986958;28;20206;-70
2021/06/24 02:40:28;;;;;;;8.85;6.55;;;16.10;99.90;;;;;;4987230;28;20203;-70
2021/06/24 02:42:55;;;;;;;7.43;6.60;;;16.10;99.90;;;;;;4975872;28;20219;-71
2021/06/24 02:45:23;;;;;;;7.10;6.50;;;16.00;99.90;;;;;;4975576;28;20203;-70
2021/06/24 02:47:50;;;;;;;11.00;6.75;;;16.10;99.90;;;;;;4977024;28;20204;-70
2021/06/24 02:50:18;;;;;;;7.97;5.93;;;16.10;99.90;;;;;;4987411;28;20203;-70
2021/06/24 02:52:47;;;;;;;6.72;6.13;;;16.00;99.90;;;;;;4984991;28;20366;-71
2021/06/24 02:55:14;;;;;;;13.25;6.82;;;16.00;99.90;;;;;;4983880;28;20240;-71
2021/06/24 02:57:41;;;;;;;7.50;5.72;;;16.00;99.90;;;;;;4984083;28;20231;-70
2021/06/24 03:00:11;;;;;;;6.75;6.03;;;15.90;99.90;;;;;;4973336;28;20210;-70
2021/06/24 03:02:38;;;;;;;8.77;5.90;;;15.90;99.90;;;;;;4974130;28;20222;-70
2021/06/24 03:05:07;;;;;;;8.32;6.30;;;15.90;99.90;;;;;;4972812;28;20221;-70
2021/06/24 03:07:34;;;;;;;6.30;5.70;;;15.80;99.90;;;;;;4979174;28;20221;-70
2021/06/24 03:10:04;;;;;;;10.90;6.32;;;15.80;99.90;;;;;;4973757;28;20243;-71
2021/06/24 03:12:32;;;;;;;10.27;7.57;;;15.80;99.90;;;;;;4980004;28;20221;-71
2021/06/24 03:15:32;;;;;;;9.13;7.43;;;15.70;99.90;;;;;;4971852;28;20297;-71
2021/06/24 03:17:59;;;;;;;7.95;6.68;;;15.70;99.90;;;;;;4977649;28;20198;-71
2021/06/24 03:20:28;;;;;;;8.82;7.93;;;15.60;99.90;;;;;;4975126;28;20213;-71
2021/06/24 03:22:58;;;;;;;12.30;8.52;;;15.60;99.90;;;;;;4975006;28;20231;-72
2021/06/24 03:25:27;;;;;;;8.82;7.93;;;15.60;99.90;;;;;;4986431;28;20210;-71
2021/06/24 03:27:54;;;;;;;9.02;8.13;;;15.70;99.90;;;;;;4974961;28;20198;-71
2021/06/24 03:30:22;;;;;;;16.45;8.45;;;15.60;99.90;;;;;;4983387;28;20276;-72
2021/06/24 03:32:50;;;;;;;14.27;8.52;;;15.60;99.90;;;;;;4975050;28;20222;-72
2021/06/24 03:35:18;;;;;;;10.20;8.48;;;15.60;99.90;;;;;;4975510;28;20212;-72
2021/06/24 03:37:46;;;;;;;12.35;8.20;;;15.60;99.90;;;;;;4982818;28;20213;-71
2021/06/24 03:40:17;;;;;;;11.57;8.57;;;15.60;99.90;;;;;;4978228;28;20207;-71
2021/06/24 03:42:47;;;;;;;14.05;8.23;;;15.60;99.90;;;;;;4977480;28;20310;-71
2021/06/24 03:45:16;;;;;;;9.50;7.72;;;15.60;99.90;;;;;;4972746;28;20631;-71
2021/06/24 03:47:43;;;;;;;11.07;8.63;;;15.60;99.90;;;;;;4975900;28;20202;-71
2021/06/24 03:50:12;;;;;;;13.52;7.60;;;15.60;99.90;;;;;;4975844;28;20228;-72
2021/06/24 03:52:39;;;;;;;14.93;9.05;;;15.60;99.90;;;;;;4986372;28;20225;-71
2021/06/24 03:55:09;;;;;;;11.60;8.15;;;15.60;99.90;;;;;;4982621;28;20649;-71
2021/06/24 03:57:36;;;;;;;7.53;6.63;;;15.50;99.90;;;;;;4986602;28;20233;-71
2021/06/24 04:00:05;;;;;;;11.52;6.70;;;15.60;99.90;;;;;;4984999;28;20209;-71
2021/06/24 04:02:32;;;;;;;7.45;6.68;;;15.60;99.90;;;;;;4973385;28;20222;-71
2021/06/24 04:05:00;;;;;;;8.48;5.65;;;15.60;99.90;;;;;;4987369;28;20197;-71
2021/06/24 04:07:27;;;;;;;8.45;7.20;;;15.90;99.90;;;;;;4974510;28;20299;-71
2021/06/24 04:09:54;;;;;;;9.70;6.45;;;16.70;99.90;;;;;;4987347;28;20201;-72
2021/06/24 04:12:21;;;;;;;7.40;5.32;;;17.50;99.90;;;;;;4969131;28;20247;-71
2021/06/24 04:14:49;;;;;;;5.30;4.40;;;18.10;99.90;;;;;;4980500;28;20202;-71
2021/06/24 04:17:17;;;;;;;8.33;5.43;;;18.30;99.90;;;;;;4987025;28;20289;-71
2021/06/24 04:19:45;;;;;;;8.53;6.00;;;18.80;99.90;;;;;;4980470;28;20941;-72
2021/06/24 04:22:12;;;;;;;6.80;4.83;;;18.90;99.90;;;;;;4972789;28;20477;-71
2021/06/24 04:24:39;;;;;;;9.93;6.73;;;18.90;99.90;;;;;;4974345;28;20815;-71
2021/06/24 04:27:07;;;;;;;9.90;6.30;;;18.80;99.90;;;;;;4989647;28;20452;-71
2021/06/24 04:29:34;;;;;;;11.90;5.43;;;18.40;99.90;;;;;;4974686;28;20472;-71
2021/06/24 04:32:01;;;;;;;9.70;5.90;;;18.10;99.90;;;;;;4971721;28;20509;-71
2021/06/24 04:34:30;;;;;;;7.63;5.47;;;18.00;99.90;;;;;;4972483;28;20806;-72
2021/06/24 04:36:57;;;;;;;9.68;6.00;;;17.80;99.90;;;;;;4970450;28;20491;-71
2021/06/24 04:39:24;;;;;;;5.93;5.25;;;17.60;99.90;;;;;;4979970;28;20232;-71
2021/06/24 04:41:51;;;;;;;9.82;5.88;;;17.40;99.90;;;;;;4981645;28;20575;-71
2021/06/24 04:44:19;;;;;;;7.35;6.40;;;17.30;99.90;;;;;;4978677;28;20576;-71
2021/06/24 04:46:46;;;;;;;6.90;5.50;;;17.10;99.90;;;;;;4982643;28;20624;-70
2021/06/24 04:49:13;;;;;;;7.47;5.35;;;17.10;99.90;;;;;;4970324;28;20587;-71
2021/06/24 04:51:42;;;;;;;5.20;4.70;;;17.10;99.90;;;;;;4971901;28;20228;-70
2021/06/24 04:54:09;;;;;;;8.57;5.28;;;17.10;99.90;;;;;;4977657;28;20218;-70
2021/06/24 04:56:36;;;;;;;9.68;6.35;;;17.10;99.90;;;;;;4975036;28;20227;-71
2021/06/24 04:59:05;;;;;;;12.53;6.33;;;17.20;99.90;;;;;;4934741;28;1194635;-71
2021/06/24 05:01:32;;;;;;;9.63;4.85;;;17.30;99.90;;;;;;4972694;28;20576;-69
2021/06/24 05:03:59;;;;;;;7.22;4.88;;;17.40;99.90;;;;;;4973160;28;20205;-69
2021/06/24 05:06:27;;;;;;;8.68;5.10;;;17.40;99.90;;;;;;4980911;28;20304;-69
2021/06/24 05:08:55;;;;;;;6.65;5.32;;;17.40;99.90;;;;;;4978449;28;20244;-70
2021/06/24 05:11:23;;;;;;;8.85;5.90;;;17.40;99.90;;;;;;4969255;28;20229;-69
2021/06/24 05:13:51;;;;;;;6.43;5.47;;;17.50;99.90;;;;;;4972852;28;20198;-71
2021/06/24 05:16:18;;;;;;;6.68;4.72;;;17.50;99.90;;;;;;4986927;28;20218;-71
2021/06/24 05:18:45;;;;;;;7.07;5.37;;;17.60;99.90;;;;;;4980107;28;20555;-71
2021/06/24 05:21:13;;;;;;;10.97;5.37;;;17.80;99.90;;;;;;4974074;28;20456;-71
2021/06/24 05:23:40;;;;;;;6.47;4.80;;;18.20;99.90;;;;;;4983854;28;20452;-72
2021/06/24 05:26:08;;;;;;;4.43;3.77;;;18.60;99.90;;;;;;4975697;28;20437;-72
2021/06/24 05:28:36;;;;;;;6.30;4.10;;;19.20;99.90;;;;;;4974186;28;20433;-72
2021/06/24 05:31:04;;;;;;;7.67;3.90;;;19.90;99.90;;;;;;4972526;28;20461;-72
2021/06/24 05:33:31;;;;;;;7.40;4.17;;;20.80;99.90;;;;;;4974953;28;20449;-71
2021/06/24 05:35:59;;;;;;;5.27;3.70;;;21.40;98.60;;;;;;4969104;28;20442;-68
2021/06/24 05:38:26;;;;;;;6.80;5.43;;;21.70;97.40;;;;;;4967669;28;20489;-71
2021/06/24 05:40:55;;;;;;;7.20;4.73;;;21.60;96.80;;;;;;4975588;28;20465;-71
2021/06/24 05:43:23;;;;;;;12.17;6.30;;;21.40;97.40;;;;;;4970879;28;20484;-71
2021/06/24 05:45:51;;;;;;;8.20;4.40;;;21.10;97.60;;;;;;4974566;28;20827;-69
2021/06/24 05:48:18;;;;;;;9.60;4.30;;;21.40;97.40;;;;;;4979023;28;20458;-71
2021/06/24 05:50:45;;;;;;;8.00;4.90;;;21.70;96.40;;;;;;4975009;28;20830;-70
2021/06/24 05:53:13;;;;;;;9.80;5.00;;;21.70;95.90;;;;;;4973873;28;20492;-73
2021/06/24 05:55:49;;;;;;;6.93;4.40;;;21.80;96.40;;;;;;4977770;28;20447;-74
2021/06/24 05:58:19;;;;;;;6.13;4.30;;;22.60;95.40;;;;;;4984921;28;20488;-73
2021/06/24 06:00:48;;;;;;;5.23;4.67;;;23.40;93.60;;;;;;4975563;28;20465;-76
2021/06/24 06:03:18;;;;;;;7.43;4.47;;;24.10;92.10;;;;;;4975461;28;20499;-77
2021/06/24 06:05:45;;;;;;;12.87;4.43;;;24.80;91.10;;;;;;4972550;28;20460;-75
2021/06/24 06:08:16;;;;;;;11.43;4.83;;;25.60;89.60;;;;;;4976226;28;20453;-74
2021/06/24 06:10:44;;;;;;;5.70;4.00;;;26.00;87.10;;;;;;4979579;28;20453;-76
2021/06/24 06:13:13;;;;;;;6.67;5.17;;;26.60;85.90;;;;;;4978782;28;20588;-73
2021/06/24 06:15:41;;;;;;;8.03;5.43;;;27.30;83.50;;;;;;4975308;28;20541;-77
2021/06/24 06:18:21;;;;;;;9.07;4.30;;;27.50;81.90;;;;;;4980281;28;20496;-74
2021/06/24 06:20:49;;;;;;;7.70;4.17;;;27.40;80.60;;;;;;4969276;28;20460;-74
2021/06/24 06:23:20;;;;;;;5.13;4.17;;;27.10;81.10;;;;;;4972892;28;20813;-78
2021/06/24 06:25:48;;;;;;;11.50;4.37;;;27.30;80.50;;;;;;4976617;28;20485;-74
2021/06/24 06:28:17;;;;;;;11.50;4.23;;;27.50;80.10;;;;;;4976423;28;20454;-74
2021/06/24 06:30:45;;;;;;;4.83;4.07;;;28.10;78.80;;;;;;4973483;28;20556;-77
2021/06/24 06:33:14;;;;;;;3.70;3.33;;;28.10;77.60;;;;;;4970749;28;21174;-74
2021/06/24 06:35:41;;;;;;;11.90;4.67;;;28.30;77.80;;;;;;4971168;28;20466;-72
2021/06/24 06:38:09;;;;;;;11.43;5.17;;;28.80;76.80;;;;;;4976607;28;20473;-75
2021/06/24 06:40:36;;;;;;;8.60;5.33;;;29.40;75.20;;;;;;4970562;28;20995;-76
2021/06/24 06:43:04;;;;;;;8.43;4.07;;;29.60;73.30;;;;;;4977273;28;20924;-77
2021/06/24 06:45:33;;;;;;;4.87;3.70;;;29.60;73.30;;;;;;4971869;28;20472;-75
2021/06/24 06:48:01;;;;;;;5.93;3.77;;;30.20;71.40;;;;;;4975717;28;20920;-75
2021/06/24 06:50:31;;;;;;;5.83;3.43;;;30.40;70.30;;;;;;4975028;28;20544;-76
2021/06/24 06:52:58;;;;;;;3.47;2.90;;;30.30;69.60;;;;;;4969131;28;20471;-75
2021/06/24 06:55:28;;;;;;;5.10;3.60;;;30.40;70.50;;;;;;4975441;28;20445;-77
2021/06/24 06:57:56;;;;;;;14.90;4.43;;;30.30;69.60;;;;;;4970026;28;20545;-73
2021/06/24 07:00:24;;;;;;;7.50;3.70;;;30.70;69.70;;;;;;4967931;28;20508;-74
2021/06/24 07:02:53;;;;;;;8.10;4.80;;;31.10;68.30;;;;;;4970904;28;20478;-73
2021/06/24 07:05:20;;;;;;;6.90;3.90;;;30.30;66.90;;;;;;4975568;28;20480;-75
2021/06/24 07:07:49;;;;;;;6.60;4.40;;;28.60;70.70;;;;;;4974628;28;20468;-78
2021/06/24 07:10:16;;;;;;;12.80;4.63;;;27.40;73.80;;;;;;4970959;28;20462;-79
2021/06/24 07:12:43;;;;;;;6.37;3.80;;;27.10;76.40;;;;;;4982873;28;20461;-80
2021/06/24 07:15:13;;;;;;;7.57;4.10;;;27.00;76.30;;;;;;4975454;28;20530;-79
2021/06/24 07:17:41;;;;;;;12.97;4.20;;;27.10;75.60;;;;;;4980114;28;20477;-75
2021/06/24 07:20:10;;;;;;;8.87;4.10;;;26.50;77.20;;;;;;4976353;28;20456;-79
2021/06/24 07:22:37;;;;;;;12.43;4.00;;;25.70;80.00;;;;;;4986612;28;20690;-78
2021/06/24 07:25:07;;;;;;;5.87;3.87;;;25.10;82.10;;;;;;4975072;28;20446;-74
2021/06/24 07:27:36;;;;;;;4.37;3.97;;;24.60;83.10;;;;;;4979582;28;20926;-78
2021/06/24 07:30:04;;;;;;;7.93;3.90;;;24.40;84.90;;;;;;4979342;28;20450;-78
2021/06/24 07:32:31;;;;;;;4.40;3.20;;;24.40;85.20;;;;;;4978548;28;20806;-79
2021/06/24 07:34:58;;;;;;;6.37;3.50;;;24.30;85.40;;;;;;4981969;28;20450;-73
2021/06/24 07:37:26;;;;;;;6.30;3.77;;;24.10;85.40;;;;;;4977640;28;20486;-78
2021/06/24 07:39:53;;;;;;;6.13;3.23;;;24.10;86.50;;;;;;4977205;28;20454;-74
2021/06/24 07:42:22;;;;;;;11.23;4.33;;;24.10;85.80;;;;;;4979428;28;20962;-76
2021/06/24 07:44:50;;;;;;;7.40;3.93;;;24.00;85.30;;;;;;4987130;28;20539;-79
2021/06/24 07:47:18;;;;;;;7.53;4.53;;;24.30;84.40;;;;;;4979613;28;20467;-78
2021/06/24 07:49:47;;;;;;;6.70;4.30;;;24.30;83.90;;;;;;4980647;28;20436;-81
2021/06/24 07:52:37;;;;;;;4.60;3.93;;;24.00;85.10;;;;;;4982304;28;20799;-76
2021/06/24 07:55:07;;;;;;;4.73;3.67;;;23.80;85.90;;;;;;4978267;28;20452;-76
2021/06/24 07:57:43;;;;;;;5.17;3.23;;;23.50;86.40;;;;;;4975980;28;20486;-76
2021/06/24 08:00:13;;;;;;;6.90;4.60;;;23.60;87.20;;;;;;4976211;28;20465;-80
2021/06/24 08:02:41;;;;;;;6.37;4.63;;;23.90;86.00;;;;;;4982407;28;21001;-75
2021/06/24 08:05:09;;;;;;;7.83;4.37;;;23.90;86.20;;;;;;4976735;28;20456;-78
2021/06/24 08:07:36;;;;;;;4.67;4.27;;;24.20;86.70;;;;;;4978543;28;20920;-78
2021/06/24 08:10:04;;;;;;;6.00;4.23;;;24.60;84.80;;;;;;4982573;28;20792;-80
2021/06/24 08:12:32;;;;;;;5.30;3.40;;;24.60;83.20;;;;;;4986159;28;20475;-79
2021/06/24 08:15:00;;;;;;;5.47;4.47;;;24.40;84.90;;;;;;4975821;28;20445;-77
2021/06/24 08:17:28;;;;;;;6.10;3.63;;;23.80;84.70;;;;;;4977171;28;20479;-80
2021/06/24 08:19:55;;;;;;;11.27;4.57;;;23.60;86.20;;;;;;4978156;28;20541;-75
2021/06/24 08:22:23;;;;;;;4.93;4.33;;;23.50;86.50;;;;;;4974217;28;20461;-77
2021/06/24 08:24:52;;;;;;;11.30;5.30;;;23.20;86.80;;;;;;4982743;28;20508;-79
2021/06/24 08:27:19;;;;;;;5.13;4.63;;;23.00;88.60;;;;;;4986519;28;20935;-77
2021/06/24 08:29:46;;;;;;;6.03;4.37;;;23.10;87.80;;;;;;4990710;28;20528;-79
2021/06/24 08:32:15;;;;;;;4.23;3.83;;;22.90;88.10;;;;;;4976210;28;20479;-77
2021/06/24 08:34:42;;;;;;;4.20;3.80;;;23.60;87.60;;;;;;4984118;28;20453;-79
2021/06/24 08:37:09;;;;;;;4.33;3.63;;;23.90;87.00;;;;;;4979845;28;20479;-76
2021/06/24 08:39:37;;;;;;;5.60;4.23;;;24.20;85.90;;;;;;4984052;28;20995;-76
2021/06/24 08:42:04;;;;;;;6.07;3.80;;;24.30;85.20;;;;;;4973707;28;20495;-77
2021/06/24 08:44:32;;;;;;;5.27;3.93;;;24.20;85.40;;;;;;4981706;28;20540;-75
2021/06/24 08:47:00;;;;;;;7.03;3.70;;;24.20;85.50;;;;;;4976547;28;20461;-78
2021/06/24 08:49:29;;;;;;;11.13;5.30;;;24.00;86.70;;;;;;4976965;28;20448;-81
2021/06/24 08:51:58;;;;;;;7.33;4.23;;;23.80;86.20;;;;;;4975069;28;20887;-78
2021/06/24 08:54:25;;;;;;;4.33;3.13;;;23.60;86.70;;;;;;4975564;28;20864;-78
2021/06/24 08:56:53;;;;;;;5.57;3.90;;;23.60;88.40;;;;;;4975384;28;20450;-81
2021/06/24 08:59:20;;;;;;;4.50;3.20;;;24.50;85.90;;;;;;4970958;28;21023;-76
2021/06/24 09:01:56;;;;;;;4.40;4.00;;;24.70;85.10;;;;;;4970259;28;20478;-76
2021/06/24 09:04:25;;;;;;;7.00;3.97;;;24.60;84.30;;;;;;4978560;28;20799;-79
2021/06/24 09:06:54;;;;;;;5.40;4.60;;;24.50;85.30;;;;;;4973408;28;20445;-79
2021/06/24 09:09:26;;;;;;;6.47;3.73;;;24.40;85.00;;;;;;4980554;28;20948;-76
2021/06/24 09:12:05;;;;;;;7.30;4.50;;;24.10;85.80;;;;;;4973810;28;20472;-78
2021/06/24 09:14:43;;;;;;;8.57;5.07;;;24.00;85.90;;;;;;4981942;28;20445;-75
2021/06/24 09:17:12;;;;;;;5.27;4.40;;;23.80;86.40;;;;;;4984292;28;20916;-80
2021/06/24 09:19:42;;;;;;;8.03;5.80;;;23.80;87.00;;;;;;4977475;28;20473;-76
2021/06/24 09:22:12;;;;;;;6.03;4.73;;;23.80;86.90;;;;;;4987429;28;20505;-79
2021/06/24 09:24:41;;;;;;;12.57;5.83;;;24.20;86.40;;;;;;4983809;28;20801;-76
2021/06/24 09:27:24;;;;;;;5.33;4.23;;;24.30;86.10;;;;;;4981469;28;20809;-75
2021/06/24 09:29:53;;;;;;;7.70;7.00;;;24.30;85.60;;;;;;4987068;28;20441;-81
2021/06/24 09:32:32;;;;;;;8.23;7.50;;;24.00;85.70;;;;;;4986740;28;20556;-77
2021/06/24 09:35:02;;;;;;;8.60;7.70;;;23.80;85.50;;;;;;4987261;28;20460;-78
2021/06/24 09:37:59;;;;;;;8.03;6.90;;;23.80;86.40;;;;;;4975201;28;20519;-82
2021/06/24 09:40:37;;;;;;;7.70;6.90;;;23.90;87.00;;;;;;4983820;28;20481;-75
2021/06/24 09:43:04;;;;;;;10.10;9.10;;;24.20;87.90;;;;;;4989185;28;20476;-77
2021/06/24 09:45:31;;;;;;;9.63;8.63;;;24.40;85.90;;;;;;4973172;28;20459;-80
2021/06/24 09:48:08;;;;;;;9.80;8.90;;;24.60;85.40;;;;;;4983909;28;20465;-77
2021/06/24 09:50:35;;;;;;;11.57;9.37;;;24.80;84.00;;;;;;4984520;28;20451;-83
2021/06/24 09:53:12;;;;;;;10.53;9.53;;;24.80;84.90;;;;;;4976659;28;20497;-75
2021/06/24 09:55:40;;;;;;;9.93;8.93;;;25.00;84.20;;;;;;4983100;28;20437;-77
2021/06/24 09:58:14;;;;;;;13.90;9.50;;;24.90;85.10;;;;;;4977202;28;20486;-76
2021/06/24 10:00:50;;;;;;;10.53;9.30;;;25.00;83.30;;;;;;4988403;28;20464;-78
2021/06/24 10:03:17;;;;;;;10.23;9.17;;;24.90;84.00;;;;;;4984279;28;20884;-78
2021/06/24 10:05:48;;;;;;;12.37;10.30;;;24.90;85.50;;;;;;4981086;28;20459;-77
2021/06/24 10:08:16;;;;;;;10.73;9.60;;;24.90;85.00;;;;;;4982805;28;20447;-76
2021/06/24 10:10:45;;;;;;;9.90;9.10;;;24.90;84.40;;;;;;4981371;28;20450;-79
2021/06/24 10:13:12;;;;;;;9.40;8.47;;;24.80;84.50;;;;;;4981235;28;20481;-81
2021/06/24 10:15:40;;;;;;;9.10;8.40;;;24.60;85.20;;;;;;4982496;28;20527;-76
2021/06/24 10:18:08;;;;;;;10.20;9.40;;;24.80;85.20;;;;;;4977096;28;20909;-75
2021/06/24 10:20:35;;;;;;;10.73;8.37;;;24.90;84.40;;;;;;4976745;28;20445;-77
2021/06/24 10:23:08;;;;;;;8.03;7.30;;;24.90;85.00;;;;;;4978027;28;20478;-75
2021/06/24 10:25:39;;;;;;;8.60;7.70;;;25.10;85.30;;;;;;4986169;28;20851;-76
2021/06/24 10:28:07;;;;;;;11.27;7.30;;;25.30;83.70;;;;;;4979200;28;20457;-75
2021/06/24 10:30:40;;;;;;;8.53;7.00;;;25.20;84.20;;;;;;4976200;28;20450;-74
2021/06/24 10:33:11;;;;;;;8.80;7.10;;;25.50;84.20;;;;;;4978477;28;20478;-78
2021/06/24 10:35:39;;;;;;;11.80;6.20;;;25.90;82.70;;;;;;4976356;28;20518;-76
2021/06/24 10:38:08;;;;;;;6.97;6.30;;;25.80;81.70;;;;;;4983077;28;20445;-79
2021/06/24 10:40:38;;;;;;;11.83;6.00;;;25.60;82.20;;;;;;4973817;28;20445;-79
2021/06/24 10:43:07;;;;;;;7.43;4.90;;;25.90;82.10;;;;;;4976285;28;20562;-78
2021/06/24 10:45:35;;;;;;;6.77;6.17;;;26.00;82.10;;;;;;4977030;28;20460;-76
2021/06/24 10:48:24;;;;;;;7.50;6.80;;;26.00;81.50;;;;;;4974181;28;20465;-74
2021/06/24 10:50:59;;;;;;;6.07;5.53;;;25.60;81.50;;;;;;4991542;28;20448;-76
2021/06/24 10:53:49;;;;;;;6.60;5.90;;;25.20;83.00;;;;;;4980058;28;20455;-78
2021/06/24 10:56:31;;;;;;;8.43;5.13;;;25.30;83.50;;;;;;4982652;28;20488;-75
2021/06/24 10:59:00;;;;;;;6.90;5.57;;;25.40;84.00;;;;;;4979703;28;20536;-77
2021/06/24 11:01:44;;;;;;;7.80;7.10;;;25.60;83.10;;;;;;4980252;28;20474;-76
2021/06/24 11:04:31;;;;;;;7.30;5.63;;;25.60;82.30;;;;;;4976267;28;20776;-76
2021/06/24 11:06:59;;;;;;;7.90;5.40;;;25.80;82.30;;;;;;4970392;28;20455;-76
2021/06/24 11:09:26;;;;;;;4.80;4.40;;;25.60;82.00;;;;;;4984529;28;20438;-76
2021/06/24 11:11:56;;;;;;;5.50;4.70;;;25.30;82.80;;;;;;4976769;28;20495;-77
2021/06/24 11:14:54;;;;;;;6.13;5.53;;;25.30;82.50;;;;;;4973454;28;20464;-74
2021/06/24 11:17:44;;;;;;;5.10;4.60;;;25.00;83.50;;;;;;4967629;28;20446;-74
2021/06/24 11:20:17;;;;;;;4.40;3.30;;;24.80;84.20;;;;;;4988525;28;20521;-77
2021/06/24 11:22:49;;;;;;;5.63;4.60;;;24.60;85.40;;;;;;4981042;28;20481;-77
2021/06/24 11:25:17;;;;;;;8.30;4.80;;;24.30;85.30;;;;;;4977760;28;20505;-79
2021/06/24 11:27:46;;;;;;;6.50;5.10;;;24.10;85.80;;;;;;4980428;28;20569;-78
2021/06/24 11:30:14;;;;;;;7.13;4.60;;;24.00;86.80;;;;;;4977185;28;20458;-75
2021/06/24 11:32:49;;;;;;;10.07;6.00;;;24.00;87.20;;;;;;4976780;28;20528;-76
2021/06/24 11:35:28;;;;;;;7.67;7.03;;;24.00;87.70;;;;;;4978155;28;20465;-80
2021/06/24 11:38:02;;;;;;;10.20;8.33;;;24.20;87.40;;;;;;4986512;28;20453;-81
2021/06/24 11:40:29;;;;;;;10.90;6.73;;;24.40;86.40;;;;;;4978925;28;20488;-77
2021/06/24 11:43:08;;;;;;;8.33;7.53;;;24.70;86.80;;;;;;4973346;28;20478;-77
2021/06/24 11:45:35;;;;;;;6.77;5.60;;;24.80;85.80;;;;;;4982429;28;20803;-75
2021/06/24 11:48:09;;;;;;;11.13;8.17;;;24.90;86.20;;;;;;4975553;28;20460;-80
2021/06/24 12:03:03;;;;;;;8.20;5.77;;;24.80;84.60;;;;;;4978521;28;20465;-76
2021/06/24 12:04:57;;;;;;;7.90;6.50;;;24.80;85.70;;;;;;4978512;28;21152;-79
2021/06/24 12:07:24;;;;;;;7.87;6.83;;;24.90;85.60;;;;;;4975761;28;20937;-78
2021/06/24 12:09:52;;;;;;;10.20;8.00;;;24.80;86.10;;;;;;4975986;28;20438;-76
2021/06/24 12:12:21;;;;;;;8.23;7.37;;;24.80;86.40;;;;;;4981264;28;20742;-77
2021/06/24 12:14:52;;;;;;;8.13;6.43;;;24.70;85.30;;;;;;4984907;28;20472;-80
2021/06/24 12:17:23;;;;;;;8.03;6.60;;;24.70;85.90;;;;;;4983289;28;20441;-77
2021/06/24 12:20:03;;;;;;;8.77;7.97;;;24.90;86.00;;;;;;4976553;28;20485;-80
2021/06/24 12:22:45;;;;;;;9.30;5.57;;;24.80;85.70;;;;;;4974549;28;20560;-78
2021/06/24 12:25:15;;;;;;;10.43;6.33;;;24.70;86.40;;;;;;4972860;28;20865;-79
2021/06/24 12:27:45;;;;;;;7.60;6.90;;;24.60;86.00;;;;;;4967306;28;20855;-79
2021/06/24 12:30:17;;;;;;;5.53;4.93;;;24.40;87.10;;;;;;4972328;28;20450;-76
2021/06/24 12:32:50;;;;;;;8.60;7.30;;;24.30;87.00;;;;;;4975661;28;20492;-75
2021/06/24 12:35:28;;;;;;;9.90;6.87;;;24.40;86.60;;;;;;4973852;28;20449;-78
2021/06/24 12:37:57;;;;;;;7.77;6.80;;;24.40;87.90;;;;;;4976972;28;20452;-77
2021/06/24 12:40:27;;;;;;;10.20;6.80;;;24.50;87.20;;;;;;4970759;28;20631;-78
2021/06/24 12:42:57;;;;;;;9.20;7.67;;;24.60;87.90;;;;;;4977683;28;20645;-79
2021/06/24 12:45:28;;;;;;;13.07;9.50;;;24.60;88.60;;;;;;4973184;28;20465;-80
2021/06/24 12:47:56;;;;;;;12.13;9.40;;;24.50;87.40;;;;;;4973781;28;20452;-80
2021/06/24 12:50:27;;;;;;;10.00;9.10;;;24.60;88.40;;;;;;4982381;28;20462;-77
2021/06/24 12:52:56;;;;;;;10.50;9.60;;;24.50;88.50;;;;;;4976804;28;20486;-77
2021/06/24 12:55:38;;;;;;;9.60;8.57;;;24.70;88.80;;;;;;4975823;28;20462;-79
2021/06/24 12:58:09;;;;;;;9.30;8.40;;;24.50;88.60;;;;;;4982205;28;20485;-76
2021/06/24 13:00:40;;;;;;;11.60;10.50;;;24.50;89.40;;;;;;4975235;28;20489;-73
2021/06/24 13:03:08;;;;;;;11.37;10.30;;;24.40;89.20;;;;;;4981097;28;20520;-77
2021/06/24 13:05:36;;;;;;;8.80;7.87;;;24.40;89.30;;;;;;4973806;28;20950;-79
2021/06/24 13:08:06;;;;;;;10.47;8.73;;;24.50;90.00;;;;;;4983142;28;20449;-78
2021/06/24 13:10:48;;;;;;;9.73;8.77;;;24.60;89.50;;;;;;4973111;28;20468;-77